sensor_id;sensor_type;location;lat;lon;timestamp;temperature;humidity
22426;DHT22;11380;50.822;15.790;2023-07-02T00:04:37;18.70;99.90
22426;DHT22;11380;50.822;15.790;2023-07-02T00:09:44;18.60;99.90
22426;DHT22;11380;50.822;15.790;2023-07-02T00:14:52;18.70;99.90
22426;DHT22;11380;50.822;15.790;2023-07-02T00:20:00;18.70;99.90
22426;DHT22;11380;50.822;15.790;2023-07-02T00:25:09;18.70;99.90
22426;DHT22;11380;50.822;15.790;2023-07-02T00:30:17;18.70;99.90
22426;DHT22;11380;50.822;15.790;2023-07-02T00:35:25;18.70;99.90
22426;DHT22;11380;50.822;15.790;2023-07-02T00:40:33;18.80;99.90
22426;DHT22;11380;50.822;15.790;2023-07-02T00:45:40;18.80;99.90
22426;DHT22;11380;50.822;15.790;2023-07-02T00:50:48;18.70;99.90
22426;DHT22;11380;50.822;15.790;2023-07-02T00:55:56;18.80;99.90
22426;DHT22;11380;50.822;15.790;2023-07-02T01:01:04;18.80;1.00
22426;DHT22;11380;50.822;15.790;2023-07-02T01:06:12;18.60;1.00
22426;DHT22;11380;50.822;15.790;2023-07-02T01:11:27;18.60;1.00
22426;DHT22;11380;50.822;15.790;2023-07-02T01:16:46;18.60;1.00
22426;DHT22;11380;50.822;15.790;2023-07-02T01:21:57;18.70;1.00
22426;DHT22;11380;50.822;15.790;2023-07-02T01:27:06;18.60;1.00
22426;DHT22;11380;50.822;15.790;2023-07-02T01:32:15;18.60;63.50
22426;DHT22;11380;50.822;15.790;2023-07-02T01:37:22;18.60;99.90
22426;DHT22;11380;50.822;15.790;2023-07-02T01:42:30;18.50;99.90
22426;DHT22;11380;50.822;15.790;2023-07-02T01:47:37;18.50;99.90
22426;DHT22;11380;50.822;15.790;2023-07-02T01:52:44;18.40;99.90
22426;DHT22;11380;50.822;15.790;2023-07-02T01:57:51;18.30;99.90
22426;DHT22;11380;50.822;15.790;2023-07-02T02:02:59;18.20;99.90
22426;DHT22;11380;50.822;15.790;2023-07-02T02:08:07;18.20;99.90
22426;DHT22;11380;50.822;15.790;2023-07-02T02:13:14;18.20;99.90
22426;DHT22;11380;50.822;15.790;2023-07-02T02:18:21;18.10;99.90
22426;DHT22;11380;50.822;15.790;2023-07-02T02:23:28;18.10;99.90
22426;DHT22;11380;50.822;15.790;2023-07-02T02:28:36;18.10;99.90
22426;DHT22;11380;50.822;15.790;2023-07-02T02:33:44;18.10;99.90
22426;DHT22;11380;50.822;15.790;2023-07-02T02:38:51;18.10;99.90
22426;DHT22;11380;50.822;15.790;2023-07-02T02:43:59;18.10;99.90
22426;DHT22;11380;50.822;15.790;2023-07-02T02:49:06;18.20;99.90
22426;DHT22;11380;50.822;15.790;2023-07-02T02:54:13;18.20;99.90
22426;DHT22;11380;50.822;15.790;2023-07-02T02:59:21;18.20;99.90
22426;DHT22;11380;50.822;15.790;2023-07-02T03:04:27;18.20;99.90
22426;DHT22;11380;50.822;15.790;2023-07-02T03:09:34;18.10;99.90
22426;DHT22;11380;50.822;15.790;2023-07-02T03:14:42;18.10;99.90
22426;DHT22;11380;50.822;15.790;2023-07-02T03:19:49;18.10;99.90
22426;DHT22;11380;50.822;15.790;2023-07-02T03:24:56;18.20;99.90
22426;DHT22;11380;50.822;15.790;2023-07-02T03:30:04;18.10;99.90
22426;DHT22;11380;50.822;15.790;2023-07-02T03:35:12;18.10;99.90
22426;DHT22;11380;50.822;15.790;2023-07-02T03:40:21;18.10;99.90
22426;DHT22;11380;50.822;15.790;2023-07-02T03:45:28;17.90;1.00
22426;DHT22;11380;50.822;15.790;2023-07-02T03:50:36;17.90;1.00
22426;DHT22;11380;50.822;15.790;2023-07-02T03:55:42;17.90;1.00
22426;DHT22;11380;50.822;15.790;2023-07-02T04:00:50;17.80;1.00
22426;DHT22;11380;50.822;15.790;2023-07-02T04:05:57;17.80;1.00
22426;DHT22;11380;50.822;15.790;2023-07-02T04:11:04;17.90;1.00
22426;DHT22;11380;50.822;15.790;2023-07-02T04:16:12;17.90;1.00
22426;DHT22;11380;50.822;15.790;2023-07-02T04:21:20;17.90;1.00
22426;DHT22;11380;50.822;15.790;2023-07-02T04:26:28;18.00;1.00
22426;DHT22;11380;50.822;15.790;2023-07-02T04:31:37;18.00;1.00
22426;DHT22;11380;50.822;15.790;2023-07-02T04:36:45;18.00;1.00
22426;DHT22;11380;50.822;15.790;2023-07-02T04:41:52;18.10;1.00
22426;DHT22;11380;50.822;15.790;2023-07-02T04:47:00;18.10;1.00
22426;DHT22;11380;50.822;15.790;2023-07-02T04:52:08;18.00;1.00
22426;DHT22;11380;50.822;15.790;2023-07-02T04:57:15;18.10;1.00
22426;DHT22;11380;50.822;15.790;2023-07-02T05:02:22;18.00;1.00
22426;DHT22;11380;50.822;15.790;2023-07-02T05:07:30;18.10;1.00
22426;DHT22;11380;50.822;15.790;2023-07-02T05:12:39;17.90;1.00
22426;DHT22;11380;50.822;15.790;2023-07-02T05:17:46;18.00;1.00
22426;DHT22;11380;50.822;15.790;2023-07-02T05:22:53;17.90;1.00
22426;DHT22;11380;50.822;15.790;2023-07-02T05:28:01;17.90;1.00
22426;DHT22;11380;50.822;15.790;2023-07-02T05:33:08;18.10;1.00
22426;DHT22;11380;50.822;15.790;2023-07-02T05:38:17;18.10;1.00
22426;DHT22;11380;50.822;15.790;2023-07-02T05:43:24;18.10;1.00
22426;DHT22;11380;50.822;15.790;2023-07-02T05:48:34;18.10;1.00
22426;DHT22;11380;50.822;15.790;2023-07-02T05:53:42;18.10;1.00
22426;DHT22;11380;50.822;15.790;2023-07-02T05:58:49;18.60;1.00
22426;DHT22;11380;50.822;15.790;2023-07-02T06:03:56;19.00;1.00
22426;DHT22;11380;50.822;15.790;2023-07-02T06:09:03;19.00;1.00
22426;DHT22;11380;50.822;15.790;2023-07-02T06:14:10;19.20;1.00
22426;DHT22;11380;50.822;15.790;2023-07-02T06:19:18;19.50;1.00
22426;DHT22;11380;50.822;15.790;2023-07-02T06:24:25;19.30;1.00
22426;DHT22;11380;50.822;15.790;2023-07-02T06:29:32;19.40;1.00
22426;DHT22;11380;50.822;15.790;2023-07-02T06:34:39;19.50;1.00
22426;DHT22;11380;50.822;15.790;2023-07-02T06:39:46;19.30;1.00
22426;DHT22;11380;50.822;15.790;2023-07-02T06:44:53;19.50;1.00
22426;DHT22;11380;50.822;15.790;2023-07-02T06:50:00;19.80;1.00
22426;DHT22;11380;50.822;15.790;2023-07-02T06:55:07;19.80;1.00
22426;DHT22;11380;50.822;15.790;2023-07-02T07:00:15;19.70;1.00
22426;DHT22;11380;50.822;15.790;2023-07-02T07:05:21;19.50;1.00
22426;DHT22;11380;50.822;15.790;2023-07-02T07:10:29;19.40;1.00
22426;DHT22;11380;50.822;15.790;2023-07-02T07:15:39;19.30;1.00
22426;DHT22;11380;50.822;15.790;2023-07-02T07:20:46;18.00;1.00
22426;DHT22;11380;50.822;15.790;2023-07-02T07:25:53;17.00;1.00
22426;DHT22;11380;50.822;15.790;2023-07-02T07:31:00;16.60;1.00
22426;DHT22;11380;50.822;15.790;2023-07-02T07:36:07;16.50;1.00
22426;DHT22;11380;50.822;15.790;2023-07-02T07:41:15;16.00;1.00
22426;DHT22;11380;50.822;15.790;2023-07-02T07:46:23;15.80;1.00
22426;DHT22;11380;50.822;15.790;2023-07-02T07:51:29;15.70;1.00
22426;DHT22;11380;50.822;15.790;2023-07-02T07:56:36;15.70;1.00
22426;DHT22;11380;50.822;15.790;2023-07-02T08:01:43;15.50;23.50
22426;DHT22;11380;50.822;15.790;2023-07-02T08:06:51;15.80;3.20
22426;DHT22;11380;50.822;15.790;2023-07-02T08:11:59;15.90;1.00
22426;DHT22;11380;50.822;15.790;2023-07-02T08:17:08;16.10;72.90
22426;DHT22;11380;50.822;15.790;2023-07-02T08:22:16;16.60;1.00
22426;DHT22;11380;50.822;15.790;2023-07-02T08:27:24;16.60;1.00
22426;DHT22;11380;50.822;15.790;2023-07-02T08:32:31;16.60;1.00
22426;DHT22;11380;50.822;15.790;2023-07-02T08:37:38;16.30;36.70
22426;DHT22;11380;50.822;15.790;2023-07-02T08:42:48;16.10;69.60
22426;DHT22;11380;50.822;15.790;2023-07-02T08:47:56;16.20;99.90
22426;DHT22;11380;50.822;15.790;2023-07-02T08:53:04;16.30;99.90
22426;DHT22;11380;50.822;15.790;2023-07-02T08:58:11;16.50;66.90
22426;DHT22;11380;50.822;15.790;2023-07-02T09:03:20;16.90;1.00
22426;DHT22;11380;50.822;15.790;2023-07-02T09:08:29;17.00;1.00
22426;DHT22;11380;50.822;15.790;2023-07-02T09:13:48;17.50;1.00
22426;DHT22;11380;50.822;15.790;2023-07-02T09:24:19;18.30;1.00
22426;DHT22;11380;50.822;15.790;2023-07-02T09:29:33;18.80;1.00
22426;DHT22;11380;50.822;15.790;2023-07-02T09:34:40;19.70;1.00
22426;DHT22;11380;50.822;15.790;2023-07-02T09:39:55;19.50;99.90
22426;DHT22;11380;50.822;15.790;2023-07-02T09:44:59;19.40;99.90
22426;DHT22;11380;50.822;15.790;2023-07-02T09:50:07;19.80;99.90
22426;DHT22;11380;50.822;15.790;2023-07-02T09:55:15;20.30;99.90
22426;DHT22;11380;50.822;15.790;2023-07-02T10:00:22;20.30;99.90
22426;DHT22;11380;50.822;15.790;2023-07-02T10:05:31;21.70;99.90
22426;DHT22;11380;50.822;15.790;2023-07-02T10:10:39;21.90;99.90
22426;DHT22;11380;50.822;15.790;2023-07-02T10:15:46;21.20;99.90
22426;DHT22;11380;50.822;15.790;2023-07-02T10:20:53;20.80;99.90
22426;DHT22;11380;50.822;15.790;2023-07-02T10:26:14;21.10;99.90
22426;DHT22;11380;50.822;15.790;2023-07-02T10:31:25;22.30;99.90
22426;DHT22;11380;50.822;15.790;2023-07-02T10:36:33;21.60;99.90
22426;DHT22;11380;50.822;15.790;2023-07-02T10:41:41;21.80;99.90
22426;DHT22;11380;50.822;15.790;2023-07-02T10:46:49;22.00;99.90
22426;DHT22;11380;50.822;15.790;2023-07-02T10:52:00;21.40;99.90
22426;DHT22;11380;50.822;15.790;2023-07-02T10:57:09;21.90;99.90
22426;DHT22;11380;50.822;15.790;2023-07-02T11:02:18;21.30;99.90
22426;DHT22;11380;50.822;15.790;2023-07-02T11:07:25;21.70;99.90
22426;DHT22;11380;50.822;15.790;2023-07-02T11:12:34;21.40;99.90
22426;DHT22;11380;50.822;15.790;2023-07-02T11:17:42;21.40;99.90
22426;DHT22;11380;50.822;15.790;2023-07-02T11:22:49;22.50;99.90
22426;DHT22;11380;50.822;15.790;2023-07-02T11:28:04;22.30;99.90
22426;DHT22;11380;50.822;15.790;2023-07-02T11:33:12;21.90;99.90
22426;DHT22;11380;50.822;15.790;2023-07-02T11:38:21;22.10;99.90
22426;DHT22;11380;50.822;15.790;2023-07-02T11:43:28;22.10;97.20
22426;DHT22;11380;50.822;15.790;2023-07-02T11:48:35;21.30;97.80
22426;DHT22;11380;50.822;15.790;2023-07-02T11:53:43;21.30;96.90
22426;DHT22;11380;50.822;15.790;2023-07-02T11:58:49;21.80;98.30
22426;DHT22;11380;50.822;15.790;2023-07-02T12:03:57;21.40;99.50
22426;DHT22;11380;50.822;15.790;2023-07-02T12:09:04;20.80;98.00
22426;DHT22;11380;50.822;15.790;2023-07-02T12:14:12;20.60;99.10
22426;DHT22;11380;50.822;15.790;2023-07-02T12:19:19;21.10;98.10
22426;DHT22;11380;50.822;15.790;2023-07-02T12:24:25;21.30;97.60
22426;DHT22;11380;50.822;15.790;2023-07-02T12:29:32;22.20;96.70
22426;DHT22;11380;50.822;15.790;2023-07-02T12:34:40;22.30;91.40
22426;DHT22;11380;50.822;15.790;2023-07-02T12:39:47;23.30;94.00
22426;DHT22;11380;50.822;15.790;2023-07-02T12:44:55;24.00;93.70
22426;DHT22;11380;50.822;15.790;2023-07-02T12:50:02;23.70;90.80
22426;DHT22;11380;50.822;15.790;2023-07-02T12:55:10;22.90;83.70
22426;DHT22;11380;50.822;15.790;2023-07-02T13:00:18;23.20;90.10
22426;DHT22;11380;50.822;15.790;2023-07-02T13:05:26;23.70;87.60
22426;DHT22;11380;50.822;15.790;2023-07-02T13:10:36;23.30;80.80
22426;DHT22;11380;50.822;15.790;2023-07-02T13:15:46;22.70;84.40
22426;DHT22;11380;50.822;15.790;2023-07-02T13:20:54;23.30;82.10
22426;DHT22;11380;50.822;15.790;2023-07-02T13:26:01;23.30;77.90
22426;DHT22;11380;50.822;15.790;2023-07-02T13:31:09;23.60;75.30
22426;DHT22;11380;50.822;15.790;2023-07-02T13:36:17;23.40;76.00
22426;DHT22;11380;50.822;15.790;2023-07-02T13:41:24;23.60;74.50
22426;DHT22;11380;50.822;15.790;2023-07-02T13:46:33;23.50;75.70
22426;DHT22;11380;50.822;15.790;2023-07-02T13:51:41;24.00;80.60
22426;DHT22;11380;50.822;15.790;2023-07-02T13:56:48;23.80;82.10
22426;DHT22;11380;50.822;15.790;2023-07-02T14:01:55;24.60;80.00
22426;DHT22;11380;50.822;15.790;2023-07-02T14:07:03;23.40;77.10
22426;DHT22;11380;50.822;15.790;2023-07-02T14:12:11;23.80;76.10
22426;DHT22;11380;50.822;15.790;2023-07-02T14:17:18;23.80;79.40
22426;DHT22;11380;50.822;15.790;2023-07-02T14:22:28;23.60;76.50
22426;DHT22;11380;50.822;15.790;2023-07-02T14:27:41;23.20;78.80
22426;DHT22;11380;50.822;15.790;2023-07-02T14:32:49;22.90;77.30
22426;DHT22;11380;50.822;15.790;2023-07-02T14:37:56;22.60;79.50
22426;DHT22;11380;50.822;15.790;2023-07-02T14:43:03;22.50;77.30
22426;DHT22;11380;50.822;15.790;2023-07-02T14:48:11;23.30;75.70
22426;DHT22;11380;50.822;15.790;2023-07-02T14:53:19;23.00;75.90
22426;DHT22;11380;50.822;15.790;2023-07-02T14:58:31;22.60;78.30
22426;DHT22;11380;50.822;15.790;2023-07-02T15:03:38;22.50;79.40
22426;DHT22;11380;50.822;15.790;2023-07-02T15:08:45;23.10;80.60
22426;DHT22;11380;50.822;15.790;2023-07-02T15:13:53;22.50;78.90
22426;DHT22;11380;50.822;15.790;2023-07-02T15:19:00;22.30;82.20
22426;DHT22;11380;50.822;15.790;2023-07-02T15:24:07;22.00;79.00
22426;DHT22;11380;50.822;15.790;2023-07-02T15:29:16;22.30;78.30
22426;DHT22;11380;50.822;15.790;2023-07-02T15:34:24;22.50;78.40
22426;DHT22;11380;50.822;15.790;2023-07-02T15:39:42;22.90;81.80
22426;DHT22;11380;50.822;15.790;2023-07-02T15:44:49;23.10;81.80
22426;DHT22;11380;50.822;15.790;2023-07-02T15:49:56;23.20;77.00
22426;DHT22;11380;50.822;15.790;2023-07-02T15:55:04;23.50;77.40
22426;DHT22;11380;50.822;15.790;2023-07-02T16:00:12;23.40;75.80
22426;DHT22;11380;50.822;15.790;2023-07-02T16:05:21;22.90;78.00
22426;DHT22;11380;50.822;15.790;2023-07-02T16:10:29;22.20;78.50
22426;DHT22;11380;50.822;15.790;2023-07-02T16:15:38;22.30;84.10
22426;DHT22;11380;50.822;15.790;2023-07-02T16:20:56;22.30;82.90
22426;DHT22;11380;50.822;15.790;2023-07-02T16:26:06;22.20;79.70
22426;DHT22;11380;50.822;15.790;2023-07-02T16:31:14;22.10;84.70
22426;DHT22;11380;50.822;15.790;2023-07-02T16:36:23;21.80;80.70
22426;DHT22;11380;50.822;15.790;2023-07-02T16:41:29;21.50;82.60
22426;DHT22;11380;50.822;15.790;2023-07-02T16:46:38;21.50;83.50
22426;DHT22;11380;50.822;15.790;2023-07-02T16:51:46;21.60;86.00
22426;DHT22;11380;50.822;15.790;2023-07-02T16:56:55;22.10;88.70
22426;DHT22;11380;50.822;15.790;2023-07-02T17:02:06;21.70;88.80
22426;DHT22;11380;50.822;15.790;2023-07-02T17:07:14;21.60;90.80
22426;DHT22;11380;50.822;15.790;2023-07-02T17:12:22;21.60;91.30
22426;DHT22;11380;50.822;15.790;2023-07-02T17:17:28;21.70;90.10
22426;DHT22;11380;50.822;15.790;2023-07-02T17:22:36;21.80;90.10
22426;DHT22;11380;50.822;15.790;2023-07-02T17:27:43;21.60;89.30
22426;DHT22;11380;50.822;15.790;2023-07-02T17:32:51;21.60;85.20
22426;DHT22;11380;50.822;15.790;2023-07-02T17:37:59;21.50;85.30
22426;DHT22;11380;50.822;15.790;2023-07-02T17:43:06;21.40;86.60
22426;DHT22;11380;50.822;15.790;2023-07-02T17:48:13;21.10;87.20
22426;DHT22;11380;50.822;15.790;2023-07-02T17:53:25;21.00;89.20
22426;DHT22;11380;50.822;15.790;2023-07-02T17:58:34;20.90;86.80
22426;DHT22;11380;50.822;15.790;2023-07-02T18:03:41;20.90;90.90
22426;DHT22;11380;50.822;15.790;2023-07-02T18:08:49;20.80;89.60
22426;DHT22;11380;50.822;15.790;2023-07-02T18:13:56;20.70;90.30
22426;DHT22;11380;50.822;15.790;2023-07-02T18:19:04;20.40;90.10
22426;DHT22;11380;50.822;15.790;2023-07-02T18:24:12;20.20;90.20
22426;DHT22;11380;50.822;15.790;2023-07-02T18:29:19;20.20;90.80
22426;DHT22;11380;50.822;15.790;2023-07-02T18:34:26;20.10;90.70
22426;DHT22;11380;50.822;15.790;2023-07-02T18:39:35;20.20;91.80
22426;DHT22;11380;50.822;15.790;2023-07-02T18:44:43;20.20;92.30
22426;DHT22;11380;50.822;15.790;2023-07-02T18:49:50;20.10;93.70
22426;DHT22;11380;50.822;15.790;2023-07-02T18:54:58;20.10;95.20
22426;DHT22;11380;50.822;15.790;2023-07-02T19:00:06;19.90;96.20
22426;DHT22;11380;50.822;15.790;2023-07-02T19:05:15;19.70;98.40
22426;DHT22;11380;50.822;15.790;2023-07-02T19:10:24;19.40;99.90
22426;DHT22;11380;50.822;15.790;2023-07-02T19:15:30;19.30;99.90
22426;DHT22;11380;50.822;15.790;2023-07-02T19:20:39;19.00;99.90
22426;DHT22;11380;50.822;15.790;2023-07-02T19:25:47;18.50;1.00
22426;DHT22;11380;50.822;15.790;2023-07-02T19:31:00;18.30;98.10
22426;DHT22;11380;50.822;15.790;2023-07-02T19:36:09;18.20;99.90
22426;DHT22;11380;50.822;15.790;2023-07-02T19:41:16;17.90;99.90
22426;DHT22;11380;50.822;15.790;2023-07-02T19:46:23;17.30;99.90
22426;DHT22;11380;50.822;15.790;2023-07-02T19:51:31;16.90;99.90
22426;DHT22;11380;50.822;15.790;2023-07-02T19:56:39;16.90;95.70
22426;DHT22;11380;50.822;15.790;2023-07-02T20:01:46;16.80;24.60
22426;DHT22;11380;50.822;15.790;2023-07-02T20:06:53;17.10;45.50
22426;DHT22;11380;50.822;15.790;2023-07-02T20:12:01;17.00;21.20
22426;DHT22;11380;50.822;15.790;2023-07-02T20:17:08;16.80;99.90
22426;DHT22;11380;50.822;15.790;2023-07-02T20:22:17;16.70;99.90
22426;DHT22;11380;50.822;15.790;2023-07-02T20:27:25;16.40;99.90
22426;DHT22;11380;50.822;15.790;2023-07-02T20:32:32;16.50;99.90
22426;DHT22;11380;50.822;15.790;2023-07-02T20:37:40;16.30;99.90
22426;DHT22;11380;50.822;15.790;2023-07-02T20:42:49;16.30;99.90
22426;DHT22;11380;50.822;15.790;2023-07-02T20:47:58;16.10;99.90
22426;DHT22;11380;50.822;15.790;2023-07-02T20:53:08;15.80;99.90
22426;DHT22;11380;50.822;15.790;2023-07-02T20:58:15;15.80;1.00
22426;DHT22;11380;50.822;15.790;2023-07-02T21:03:22;15.70;1.00
22426;DHT22;11380;50.822;15.790;2023-07-02T21:08:29;15.80;1.00
22426;DHT22;11380;50.822;15.790;2023-07-02T21:13:37;15.40;1.00
22426;DHT22;11380;50.822;15.790;2023-07-02T21:18:44;15.40;1.00
22426;DHT22;11380;50.822;15.790;2023-07-02T21:23:52;15.50;1.00
22426;DHT22;11380;50.822;15.790;2023-07-02T21:29:00;15.60;1.00
22426;DHT22;11380;50.822;15.790;2023-07-02T21:34:08;15.50;1.00
22426;DHT22;11380;50.822;15.790;2023-07-02T21:39:15;15.40;1.00
22426;DHT22;11380;50.822;15.790;2023-07-02T21:44:23;15.60;1.00
22426;DHT22;11380;50.822;15.790;2023-07-02T21:49:30;15.50;1.00
22426;DHT22;11380;50.822;15.790;2023-07-02T21:54:38;15.70;1.00
22426;DHT22;11380;50.822;15.790;2023-07-02T21:59:44;15.70;1.00
22426;DHT22;11380;50.822;15.790;2023-07-02T22:04:52;15.40;1.00
22426;DHT22;11380;50.822;15.790;2023-07-02T22:09:59;15.50;1.00
22426;DHT22;11380;50.822;15.790;2023-07-02T22:15:06;15.50;1.00
22426;DHT22;11380;50.822;15.790;2023-07-02T22:20:14;15.60;1.00
22426;DHT22;11380;50.822;15.790;2023-07-02T22:25:24;15.60;1.00
22426;DHT22;11380;50.822;15.790;2023-07-02T22:30:32;15.60;1.00
22426;DHT22;11380;50.822;15.790;2023-07-02T22:35:39;15.50;1.00
22426;DHT22;11380;50.822;15.790;2023-07-02T22:40:46;15.40;1.00
22426;DHT22;11380;50.822;15.790;2023-07-02T22:45:53;15.60;1.00
22426;DHT22;11380;50.822;15.790;2023-07-02T22:51:00;15.60;1.00
22426;DHT22;11380;50.822;15.790;2023-07-02T22:56:11;15.90;99.90
22426;DHT22;11380;50.822;15.790;2023-07-02T23:01:21;15.80;99.90
22426;DHT22;11380;50.822;15.790;2023-07-02T23:06:28;16.10;99.90
22426;DHT22;11380;50.822;15.790;2023-07-02T23:11:37;16.20;99.90
22426;DHT22;11380;50.822;15.790;2023-07-02T23:16:44;16.30;99.90
22426;DHT22;11380;50.822;15.790;2023-07-02T23:21:52;16.30;99.90
22426;DHT22;11380;50.822;15.790;2023-07-02T23:26:59;16.30;99.90
22426;DHT22;11380;50.822;15.790;2023-07-02T23:32:06;16.30;99.90
22426;DHT22;11380;50.822;15.790;2023-07-02T23:37:16;16.40;99.90
22426;DHT22;11380;50.822;15.790;2023-07-02T23:42:24;16.30;99.90
22426;DHT22;11380;50.822;15.790;2023-07-02T23:47:31;16.30;99.90
22426;DHT22;11380;50.822;15.790;2023-07-02T23:52:38;16.40;99.90
22426;DHT22;11380;50.822;15.790;2023-07-02T23:57:46;16.20;99.90
